Time;durP1;ratioP1;P1;durP2;ratioP2;P2;SDS_P1;SDS_P2;PMS_P1;PMS_P2;Temp;Humidity;BMP_temperature;BMP_pressure;BME280_temperature;BME280_humidity;BME280_pressure;Samples;Min_cycle;Max_cycle;Signal;HPM_P1;HPM_P2
2022/06/05 00:01:36;;;;;;;8.00;4.63;;;16.70;99.90;;;;;;5037541;28;20610;-83
2022/06/05 00:04:12;;;;;;;7.73;4.57;;;16.70;99.90;;;;;;5036335;28;20200;-83
2022/06/05 00:07:01;;;;;;;6.10;4.30;;;16.70;99.90;;;;;;5035828;28;20195;-83
2022/06/05 00:09:33;;;;;;;5.10;4.17;;;16.60;99.90;;;;;;5037224;28;20291;-83
2022/06/05 00:12:14;;;;;;;5.57;4.43;;;16.60;99.90;;;;;;5036183;28;20290;-84
2022/06/05 00:14:42;;;;;;;20.97;5.67;;;16.50;99.90;;;;;;5035456;28;20238;-82
2022/06/05 00:17:15;;;;;;;7.60;4.50;;;16.50;99.90;;;;;;5035565;28;20226;-84
2022/06/05 00:19:45;;;;;;;9.40;4.90;;;16.40;99.90;;;;;;5036128;28;20247;-82
2022/06/05 00:22:13;;;;;;;8.67;5.03;;;16.40;99.90;;;;;;5035604;28;20317;-75
2022/06/05 00:24:40;;;;;;;6.60;4.23;;;16.30;99.90;;;;;;5036643;28;20210;-84
2022/06/05 00:27:20;;;;;;;5.83;4.50;;;16.20;99.90;;;;;;5036961;28;20230;-86
2022/06/05 00:30:09;;;;;;;7.13;4.43;;;16.20;99.90;;;;;;5037639;28;20203;-81
2022/06/05 00:32:59;;;;;;;8.17;4.77;;;16.20;99.90;;;;;;5036950;28;20203;-86
2022/06/05 00:35:32;;;;;;;4.90;4.23;;;16.10;99.90;;;;;;5036893;28;20553;-82
2022/06/05 00:38:12;;;;;;;9.03;4.47;;;16.00;99.90;;;;;;5036013;28;20227;-69
2022/06/05 00:41:00;;;;;;;6.53;4.27;;;16.00;99.90;;;;;;5035656;28;20618;-87
2022/06/05 00:43:27;;;;;;;6.20;4.80;;;15.90;99.90;;;;;;5036094;28;20223;-85
2022/06/05 00:45:58;;;;;;;7.30;5.43;;;15.80;99.90;;;;;;5035258;28;20271;-66
2022/06/05 00:48:25;;;;;;;7.37;4.40;;;15.80;99.90;;;;;;5034768;28;20291;-84
2022/06/05 00:50:53;;;;;;;7.37;5.20;;;15.80;99.90;;;;;;5033362;28;20205;-63
2022/06/05 00:53:20;;;;;;;6.10;4.13;;;15.80;99.90;;;;;;5035822;28;20278;-69
2022/06/05 00:55:50;;;;;;;7.63;4.30;;;15.70;99.90;;;;;;5035531;28;20199;-75
2022/06/05 00:58:19;;;;;;;6.03;4.40;;;15.70;99.90;;;;;;5040487;28;20205;-69
2022/06/05 01:00:52;;;;;;;5.70;4.03;;;15.60;99.90;;;;;;5040210;28;20227;-85
2022/06/05 01:03:21;;;;;;;6.20;4.70;;;15.60;99.90;;;;;;5034817;28;20199;-71
2022/06/05 01:05:48;;;;;;;7.73;4.63;;;15.50;99.90;;;;;;5034050;28;20226;-80
2022/06/05 01:08:16;;;;;;;7.40;4.30;;;15.50;99.90;;;;;;5034258;28;20205;-81
2022/06/05 01:10:45;;;;;;;5.87;4.27;;;15.40;99.90;;;;;;5033941;28;20291;-71
2022/06/05 01:13:49;;;;;;;7.87;4.37;;;15.30;99.90;;;;;;5034416;28;20253;-68
2022/06/05 01:16:31;;;;;;;5.97;4.30;;;15.30;99.90;;;;;;5030646;28;20349;-80
2022/06/05 01:19:29;;;;;;;6.07;4.07;;;15.30;99.90;;;;;;5034056;28;20235;-75
2022/06/05 01:22:34;;;;;;;11.63;4.73;;;15.20;99.90;;;;;;5036181;28;20231;-79
2022/06/05 01:25:10;;;;;;;7.40;4.07;;;15.20;99.90;;;;;;5034293;28;20260;-73
2022/06/05 01:27:41;;;;;;;6.00;4.13;;;15.20;99.90;;;;;;5034265;28;20305;-79
2022/06/05 01:30:13;;;;;;;6.63;4.47;;;15.10;99.90;;;;;;5033947;28;20206;-77
2022/06/05 01:32:49;;;;;;;5.87;4.43;;;15.10;99.90;;;;;;5033928;28;20201;-82
2022/06/05 01:35:32;;;;;;;5.93;4.00;;;15.00;99.90;;;;;;5035243;28;20229;-80
2022/06/05 01:38:06;;;;;;;9.00;4.47;;;14.90;99.90;;;;;;5034190;28;20205;-74
2022/06/05 01:40:46;;;;;;;8.60;4.60;;;14.90;99.90;;;;;;5033848;28;20315;-67
2022/06/05 01:43:22;;;;;;;6.87;4.30;;;14.90;99.90;;;;;;5033729;28;20606;-64
2022/06/05 01:46:15;;;;;;;6.67;4.53;;;14.90;99.90;;;;;;5033777;28;20192;-64
2022/06/05 01:48:51;;;;;;;6.10;4.30;;;14.80;99.90;;;;;;5033594;28;20205;-65
2022/06/05 01:51:25;;;;;;;6.23;4.50;;;14.80;99.90;;;;;;5034991;28;20563;-63
2022/06/05 01:53:54;;;;;;;6.93;4.70;;;14.70;99.90;;;;;;5033624;28;20221;-63
2022/06/05 01:56:24;;;;;;;5.90;4.43;;;14.80;99.90;;;;;;5033432;28;20203;-83
2022/06/05 01:59:01;;;;;;;7.20;4.50;;;14.80;99.90;;;;;;5033236;28;20251;-77
2022/06/05 02:01:34;;;;;;;10.53;5.00;;;14.70;99.90;;;;;;5035074;28;20214;-63
2022/06/05 02:04:08;;;;;;;6.87;5.07;;;14.60;99.90;;;;;;5034907;28;20229;-67
2022/06/05 02:06:41;;;;;;;6.30;4.67;;;14.60;99.90;;;;;;5038448;28;20203;-65
2022/06/05 02:09:19;;;;;;;5.93;4.50;;;14.50;99.90;;;;;;5050900;28;20196;-70
2022/06/05 02:11:47;;;;;;;7.07;4.60;;;14.50;99.90;;;;;;5031315;28;20580;-64
2022/06/05 02:14:14;;;;;;;6.13;4.20;;;14.50;99.90;;;;;;5034756;28;20245;-68
2022/06/05 02:16:43;;;;;;;6.17;4.43;;;14.50;99.90;;;;;;5032909;28;20203;-64
2022/06/05 02:19:19;;;;;;;6.50;4.27;;;14.50;99.90;;;;;;5032858;28;20212;-66
2022/06/05 02:21:46;;;;;;;6.37;4.70;;;14.50;99.90;;;;;;5032806;28;20325;-71
2022/06/05 02:24:14;;;;;;;8.43;5.27;;;14.40;99.90;;;;;;5032706;28;20278;-64
2022/06/05 02:26:41;;;;;;;7.73;5.00;;;14.50;99.90;;;;;;5032576;28;20206;-64
2022/06/05 02:29:19;;;;;;;9.00;5.23;;;14.50;99.90;;;;;;5032471;28;20728;-66
2022/06/05 02:32:19;;;;;;;7.87;5.37;;;14.50;99.90;;;;;;5032908;28;20611;-66
2022/06/05 02:34:59;;;;;;;9.17;5.33;;;14.40;99.90;;;;;;5032283;28;20203;-64
2022/06/05 02:37:56;;;;;;;8.67;5.33;;;14.30;99.90;;;;;;5032784;28;20199;-68
2022/06/05 02:40:44;;;;;;;7.53;4.90;;;14.40;99.90;;;;;;5032491;28;20684;-65
2022/06/05 02:43:26;;;;;;;9.30;4.60;;;14.40;99.90;;;;;;5033844;28;20275;-64
2022/06/05 02:46:07;;;;;;;7.77;4.80;;;14.30;99.90;;;;;;5032266;28;20236;-64
2022/06/05 02:48:39;;;;;;;6.43;4.43;;;14.40;99.90;;;;;;5032474;28;20649;-64
2022/06/05 02:51:13;;;;;;;7.53;4.47;;;14.40;99.90;;;;;;5033974;28;20274;-64
2022/06/05 02:53:52;;;;;;;5.70;4.30;;;14.40;99.90;;;;;;5032241;28;20562;-63
2022/06/05 02:56:19;;;;;;;5.70;4.13;;;14.30;99.90;;;;;;5032029;28;20714;-64
2022/06/05 02:58:48;;;;;;;5.43;3.90;;;14.30;99.90;;;;;;5032139;28;20198;-64
2022/06/05 03:04:02;;;;;;;6.10;4.10;;;14.30;99.90;;;;;;5031958;28;20249;-65
2022/06/05 03:06:31;;;;;;;6.13;3.73;;;14.40;99.90;;;;;;5032333;28;20209;-63
2022/06/05 03:08:58;;;;;;;5.60;4.20;;;14.50;99.90;;;;;;5032219;28;20195;-64
2022/06/05 03:11:25;;;;;;;6.77;4.33;;;14.50;99.90;;;;;;5031875;28;20723;-65
2022/06/05 03:13:52;;;;;;;5.60;4.10;;;14.50;99.90;;;;;;5031121;28;20656;-64
2022/06/05 03:16:19;;;;;;;5.67;4.30;;;14.50;99.90;;;;;;5031974;28;20203;-63
2022/06/05 03:18:46;;;;;;;5.50;4.07;;;14.50;99.90;;;;;;5031782;28;20210;-64
2022/06/05 03:21:13;;;;;;;5.40;4.03;;;14.50;99.90;;;;;;5031511;28;20239;-63
2022/06/05 03:23:40;;;;;;;5.97;4.00;;;14.60;99.90;;;;;;5031910;28;20293;-63
2022/06/05 03:26:12;;;;;;;7.27;4.40;;;14.60;99.90;;;;;;5031589;28;20199;-67
2022/06/05 03:28:43;;;;;;;5.77;4.03;;;14.50;99.90;;;;;;5031818;28;20230;-79
2022/06/05 03:31:10;;;;;;;6.63;4.73;;;14.50;99.90;;;;;;5031861;28;20207;-80
2022/06/05 03:33:37;;;;;;;5.80;4.33;;;14.40;99.90;;;;;;5031946;28;20299;-74
2022/06/05 03:36:10;;;;;;;6.67;4.60;;;14.50;99.90;;;;;;5031714;28;20212;-78
2022/06/05 03:38:38;;;;;;;6.97;4.43;;;14.50;99.90;;;;;;5033691;28;20202;-77
2022/06/05 03:41:08;;;;;;;5.53;4.17;;;14.50;99.90;;;;;;5033238;28;20308;-76
2022/06/05 03:43:36;;;;;;;5.07;4.20;;;14.40;99.90;;;;;;5031523;28;20294;-64
2022/06/05 03:46:06;;;;;;;7.80;4.50;;;14.40;99.90;;;;;;5031871;28;20290;-80
2022/06/05 03:48:34;;;;;;;6.00;4.13;;;14.50;99.90;;;;;;5031898;28;20546;-77
2022/06/05 03:51:06;;;;;;;7.07;4.17;;;14.50;99.90;;;;;;5031672;28;20198;-64
2022/06/05 03:53:33;;;;;;;5.97;4.27;;;14.60;99.90;;;;;;5014930;28;20664;-64
2022/06/05 03:56:00;;;;;;;9.20;4.40;;;14.60;99.90;;;;;;5031523;28;20615;-80
2022/06/05 03:58:27;;;;;;;6.63;4.60;;;14.70;99.90;;;;;;5031773;28;20237;-81
2022/06/05 04:00:54;;;;;;;7.33;3.90;;;14.70;99.90;;;;;;5031590;28;20641;-79
2022/06/05 04:03:21;;;;;;;8.00;4.57;;;14.80;99.90;;;;;;5031308;28;20202;-80
2022/06/05 04:05:48;;;;;;;5.87;4.40;;;14.70;99.90;;;;;;5031389;28;20203;-78
2022/06/05 04:08:16;;;;;;;5.33;4.23;;;14.70;99.90;;;;;;5031515;28;20195;-80
2022/06/05 04:10:43;;;;;;;7.20;4.07;;;14.80;99.90;;;;;;5032821;28;20548;-77
2022/06/05 04:13:10;;;;;;;6.53;4.43;;;14.80;99.90;;;;;;5033030;28;20565;-76
2022/06/05 04:15:39;;;;;;;8.13;4.43;;;14.60;99.90;;;;;;5031438;28;20230;-82
2022/06/05 04:18:07;;;;;;;8.50;4.60;;;14.60;99.90;;;;;;5031318;28;20312;-78
2022/06/05 04:20:36;;;;;;;8.20;4.90;;;14.50;99.90;;;;;;5031208;28;20339;-80
2022/06/05 04:23:04;;;;;;;6.63;4.77;;;14.50;99.90;;;;;;5031687;28;20195;-81
2022/06/05 04:25:31;;;;;;;6.73;4.17;;;14.50;99.90;;;;;;5033789;28;20200;-81
2022/06/05 04:27:58;;;;;;;8.17;4.63;;;14.50;99.90;;;;;;5035254;28;20302;-79
2022/06/05 04:30:26;;;;;;;6.50;4.60;;;14.50;99.90;;;;;;5035242;28;20226;-79
2022/06/05 04:32:53;;;;;;;7.53;4.57;;;14.60;99.90;;;;;;5035191;28;20223;-76
2022/06/05 04:35:20;;;;;;;8.40;4.70;;;14.70;99.90;;;;;;5035069;28;20207;-82
2022/06/05 04:37:47;;;;;;;7.07;4.77;;;14.60;99.90;;;;;;5036473;28;20273;-80
2022/06/05 04:40:14;;;;;;;6.43;4.33;;;14.60;99.90;;;;;;5034828;28;20227;-81
2022/06/05 04:42:40;;;;;;;7.53;4.47;;;14.70;99.90;;;;;;5034999;28;20641;-81
2022/06/05 04:45:08;;;;;;;5.63;4.00;;;14.70;99.90;;;;;;5036414;28;20594;-64
2022/06/05 04:47:34;;;;;;;6.30;4.43;;;14.70;99.90;;;;;;5034865;28;20206;-81
2022/06/05 04:50:02;;;;;;;7.57;4.20;;;14.80;99.90;;;;;;5034608;28;20302;-65
2022/06/05 04:52:29;;;;;;;6.50;4.30;;;14.80;99.90;;;;;;5035716;28;20249;-81
2022/06/05 04:54:56;;;;;;;6.57;4.67;;;14.80;99.90;;;;;;5040306;28;20253;-67
2022/06/05 04:57:23;;;;;;;7.13;4.63;;;14.90;99.90;;;;;;5040315;28;20290;-63
2022/06/05 04:59:50;;;;;;;6.63;4.50;;;14.80;99.90;;;;;;5034872;28;20230;-64
2022/06/05 05:02:17;;;;;;;6.90;4.40;;;14.90;99.90;;;;;;5047773;28;20329;-74
2022/06/05 05:04:47;;;;;;;6.53;4.33;;;15.00;99.90;;;;;;5044091;28;20219;-75
2022/06/05 05:07:17;;;;;;;6.10;4.20;;;15.00;99.90;;;;;;5034506;28;20195;-81
2022/06/05 05:09:47;;;;;;;6.83;4.80;;;15.10;99.90;;;;;;5034283;28;20192;-81
2022/06/05 05:12:15;;;;;;;7.37;4.47;;;15.10;99.90;;;;;;5034824;28;20286;-67
2022/06/05 05:14:42;;;;;;;6.63;4.83;;;15.10;99.90;;;;;;5034085;28;20230;-78
2022/06/05 05:17:09;;;;;;;6.87;4.53;;;15.10;99.90;;;;;;5035801;28;20569;-83
2022/06/05 05:19:36;;;;;;;9.70;4.70;;;15.00;99.90;;;;;;5036746;28;20199;-82
2022/06/05 05:22:04;;;;;;;5.87;4.30;;;15.10;99.90;;;;;;5034119;28;20227;-65
2022/06/05 05:24:31;;;;;;;5.60;4.50;;;15.20;99.90;;;;;;5033999;28;20206;-81
2022/06/05 05:26:57;;;;;;;6.50;4.50;;;15.20;99.90;;;;;;5034220;28;20617;-82
2022/06/05 05:29:24;;;;;;;5.57;4.13;;;15.30;99.90;;;;;;5034066;28;20294;-81
2022/06/05 05:31:52;;;;;;;7.10;4.07;;;15.30;99.90;;;;;;5036969;28;20290;-84
2022/06/05 05:34:19;;;;;;;6.00;4.00;;;15.30;99.90;;;;;;5036146;28;20598;-78
2022/06/05 05:36:46;;;;;;;5.40;3.97;;;15.30;99.90;;;;;;5035300;28;20235;-80
2022/06/05 05:42:05;;;;;;;5.53;4.17;;;15.40;99.90;;;;;;5034908;28;20554;-84
2022/06/05 05:44:37;;;;;;;6.67;3.73;;;15.40;99.90;;;;;;5033370;28;20230;-82
2022/06/05 05:47:08;;;;;;;5.97;4.13;;;15.40;99.90;;;;;;5033520;28;20195;-81
2022/06/05 05:49:35;;;;;;;4.53;3.77;;;15.50;99.90;;;;;;5033655;28;20200;-83
2022/06/05 05:52:03;;;;;;;4.60;3.60;;;15.60;99.90;;;;;;5035149;28;20561;-78
2022/06/05 05:54:29;;;;;;;5.87;3.83;;;15.70;99.90;;;;;;5033415;28;20203;-75
2022/06/05 05:56:56;;;;;;;5.60;3.80;;;15.80;99.90;;;;;;5033285;28;20290;-77
2022/06/05 05:59:24;;;;;;;7.60;4.00;;;15.90;99.90;;;;;;5016131;28;20286;-65
2022/06/05 06:01:51;;;;;;;7.30;4.20;;;16.00;99.90;;;;;;5033329;28;20223;-64
2022/06/05 06:04:18;;;;;;;5.03;3.70;;;16.00;99.90;;;;;;5032959;28;20230;-65
2022/06/05 06:06:48;;;;;;;6.07;3.60;;;16.10;99.90;;;;;;5033222;28;20208;-64
2022/06/05 06:09:17;;;;;;;5.80;3.87;;;16.30;99.90;;;;;;5034286;28;20215;-64
2022/06/05 06:11:44;;;;;;;9.13;3.90;;;16.40;99.90;;;;;;5033206;28;20294;-65
2022/06/05 06:14:11;;;;;;;5.47;3.40;;;16.50;99.90;;;;;;5032772;28;20253;-65
2022/06/05 06:16:39;;;;;;;9.43;3.57;;;16.60;99.90;;;;;;5032657;28;20204;-63
2022/06/05 06:19:06;;;;;;;3.83;3.10;;;16.60;99.90;;;;;;5033794;28;20195;-64
2022/06/05 06:21:35;;;;;;;6.20;3.70;;;16.70;99.90;;;;;;5032619;28;20219;-64
2022/06/05 06:24:09;;;;;;;5.97;3.53;;;16.60;99.90;;;;;;5017072;28;20254;-66
2022/06/05 06:26:36;;;;;;;7.30;3.40;;;16.60;99.90;;;;;;5033799;28;20191;-66
2022/06/05 06:29:03;;;;;;;5.57;3.30;;;16.70;99.90;;;;;;5032246;28;20211;-82
2022/06/05 06:31:30;;;;;;;6.70;3.30;;;16.80;99.90;;;;;;5032479;28;20207;-81
2022/06/05 06:33:57;;;;;;;7.27;3.70;;;16.80;99.90;;;;;;5033662;28;20226;-80
2022/06/05 06:36:24;;;;;;;4.87;3.20;;;16.80;99.90;;;;;;5032359;28;20192;-80
2022/06/05 06:39:11;;;;;;;4.97;3.17;;;16.90;99.90;;;;;;5032317;28;20199;-65
2022/06/05 06:41:38;;;;;;;3.87;2.80;;;17.00;99.90;;;;;;5032590;28;20223;-65
2022/06/05 06:44:05;;;;;;;3.43;2.70;;;17.00;99.90;;;;;;5032625;28;20191;-69
2022/06/05 06:46:32;;;;;;;4.30;2.50;;;17.20;99.90;;;;;;5033807;28;20626;-64
2022/06/05 06:48:59;;;;;;;5.10;3.20;;;17.30;99.90;;;;;;5032223;28;20294;-65
2022/06/05 06:51:28;;;;;;;4.60;2.90;;;17.40;99.90;;;;;;5032577;28;20214;-82
2022/06/05 06:53:54;;;;;;;4.20;2.70;;;17.30;99.90;;;;;;5032335;28;20206;-81
2022/06/05 06:56:27;;;;;;;3.30;2.67;;;17.30;99.90;;;;;;5032048;28;20290;-82
2022/06/05 06:58:55;;;;;;;4.40;2.73;;;17.40;99.90;;;;;;5032083;28;20223;-76
2022/06/05 07:01:22;;;;;;;5.60;3.20;;;17.40;99.90;;;;;;5031917;28;20305;-78
2022/06/05 07:03:49;;;;;;;3.93;2.87;;;17.50;99.90;;;;;;5032011;28;20199;-65
2022/06/05 07:06:17;;;;;;;4.57;2.70;;;17.50;99.90;;;;;;5031896;28;20203;-65
2022/06/05 07:08:45;;;;;;;3.83;2.80;;;17.60;99.90;;;;;;5032136;28;20234;-70
2022/06/05 07:11:14;;;;;;;4.20;2.77;;;17.70;99.90;;;;;;5032984;28;20195;-66
2022/06/05 07:13:48;;;;;;;3.57;2.77;;;17.70;99.90;;;;;;5032890;28;20203;-68
2022/06/05 07:16:15;;;;;;;3.77;2.70;;;17.90;99.90;;;;;;5031778;28;20660;-64
2022/06/05 07:18:42;;;;;;;4.13;2.90;;;18.00;99.90;;;;;;5031507;28;20195;-79
2022/06/05 07:21:13;;;;;;;7.17;2.80;;;18.10;99.90;;;;;;5032428;28;20659;-75
2022/06/05 07:23:40;;;;;;;4.60;2.93;;;18.10;99.90;;;;;;5031535;28;20254;-76
2022/06/05 07:26:11;;;;;;;3.73;2.90;;;18.20;99.90;;;;;;5031601;28;20206;-81
2022/06/05 07:28:38;;;;;;;7.80;2.90;;;18.40;99.90;;;;;;5031739;28;20297;-76
2022/06/05 07:31:07;;;;;;;5.30;3.00;;;18.50;99.90;;;;;;5033440;28;20265;-79
2022/06/05 07:33:34;;;;;;;5.23;2.70;;;18.50;99.90;;;;;;5031988;28;20203;-79
2022/06/05 07:36:05;;;;;;;3.47;2.73;;;18.60;99.90;;;;;;5031879;28;20653;-74
2022/06/05 07:38:33;;;;;;;4.93;3.00;;;18.60;99.90;;;;;;5031814;28;20235;-82
2022/06/05 07:41:01;;;;;;;5.20;2.60;;;18.70;99.90;;;;;;5031268;28;20241;-75
2022/06/05 07:43:28;;;;;;;5.70;3.07;;;18.70;99.90;;;;;;5031739;28;20278;-81
2022/06/05 07:45:57;;;;;;;4.00;2.73;;;18.70;99.90;;;;;;5032332;28;20684;-76
2022/06/05 07:48:24;;;;;;;4.57;2.77;;;18.50;99.90;;;;;;5033633;28;20199;-81
2022/06/05 07:56:36;;;;;;;4.33;2.77;;;18.80;99.90;;;;;;5033282;28;20203;-81
2022/06/05 07:59:03;;;;;;;6.40;3.30;;;18.90;99.90;;;;;;5032279;28;20202;-83
2022/06/05 08:01:50;;;;;;;4.57;2.93;;;19.10;99.90;;;;;;5035619;28;20223;-79
2022/06/05 08:04:17;;;;;;;4.47;2.80;;;19.20;99.90;;;;;;5035812;28;20238;-81
2022/06/05 08:06:52;;;;;;;5.80;3.10;;;19.40;99.90;;;;;;5036472;28;20254;-83
2022/06/05 08:09:19;;;;;;;5.43;3.30;;;19.50;99.90;;;;;;5035710;28;20745;-78
2022/06/05 08:11:46;;;;;;;4.80;3.40;;;19.50;99.90;;;;;;5035342;28;20208;-82
2022/06/05 08:14:14;;;;;;;4.77;3.10;;;19.40;99.90;;;;;;5035024;28;20266;-81
2022/06/05 08:16:43;;;;;;;5.93;3.30;;;19.40;99.90;;;;;;5035302;28;20195;-79
2022/06/05 08:19:13;;;;;;;4.37;2.90;;;19.50;99.90;;;;;;5018399;28;20203;-80
2022/06/05 08:21:45;;;;;;;6.23;3.10;;;19.80;99.90;;;;;;5035060;28;20684;-76
2022/06/05 08:24:12;;;;;;;3.93;2.90;;;20.60;99.90;;;;;;5036266;28;20206;-79
2022/06/05 08:26:39;;;;;;;4.47;3.35;;;21.40;99.90;;;;;;5035408;28;20203;-78
2022/06/05 08:29:07;;;;;;;5.30;3.15;;;22.40;99.90;;;;;;5034596;28;20310;-83
2022/06/05 08:31:34;;;;;;;4.70;3.47;;;23.10;99.90;;;;;;5036295;28;20199;-80
2022/06/05 08:34:02;;;;;;;4.60;3.20;;;23.60;99.70;;;;;;5034799;28;20671;-75
2022/06/05 08:36:30;;;;;;;3.78;2.95;;;24.10;97.50;;;;;;5034964;28;20687;-83
2022/06/05 08:42:11;;;;;;;5.88;2.92;;;24.80;92.70;;;;;;5034897;28;20329;-72
2022/06/05 08:44:56;;;;;;;3.55;2.80;;;25.30;91.80;;;;;;5036107;28;20188;-77
2022/06/05 08:47:45;;;;;;;3.78;3.00;;;25.80;90.00;;;;;;5034156;28;20204;-66
2022/06/05 08:50:40;;;;;;;4.00;3.25;;;25.70;87.70;;;;;;5034248;28;20290;-66
2022/06/05 08:53:19;;;;;;;3.97;2.80;;;26.10;86.50;;;;;;5034363;28;20199;-67
2022/06/05 08:55:48;;;;;;;3.22;2.75;;;26.20;82.00;;;;;;5033946;28;20564;-66
2022/06/05 08:58:29;;;;;;;4.68;2.78;;;25.70;78.40;;;;;;5033825;28;20290;-66
2022/06/05 09:01:13;;;;;;;4.93;3.00;;;25.10;78.00;;;;;;5035388;28;20573;-65
2022/06/05 09:03:47;;;;;;;4.60;2.92;;;25.60;76.60;;;;;;5034150;28;20202;-76
2022/06/05 09:06:21;;;;;;;3.15;2.70;;;25.80;74.70;;;;;;5034209;28;20317;-73
2022/06/05 09:08:53;;;;;;;3.50;2.70;;;25.70;74.40;;;;;;5034000;28;20680;-82
2022/06/05 09:11:34;;;;;;;4.57;2.70;;;25.90;70.90;;;;;;5032684;28;20207;-79
2022/06/05 09:14:16;;;;;;;3.30;2.42;;;25.90;71.20;;;;;;5033619;28;20290;-76
2022/06/05 09:16:51;;;;;;;2.95;2.17;;;26.00;66.20;;;;;;5017528;28;20290;-75
2022/06/05 09:19:24;;;;;;;3.25;2.30;;;26.40;69.30;;;;;;5016968;28;20261;-79
2022/06/05 09:22:04;;;;;;;3.05;2.50;;;26.40;67.90;;;;;;5033612;28;20285;-82
2022/06/05 09:24:39;;;;;;;5.68;2.67;;;26.70;67.70;;;;;;5033572;28;20202;-82
2022/06/05 09:27:13;;;;;;;2.60;2.40;;;26.80;65.90;;;;;;5033658;28;20207;-80
2022/06/05 09:29:49;;;;;;;2.72;2.40;;;27.00;65.80;;;;;;5033640;28;20205;-66
2022/06/05 09:32:34;;;;;;;6.78;2.67;;;27.40;66.10;;;;;;5035054;28;20199;-74
2022/06/05 09:35:12;;;;;;;3.80;2.70;;;27.00;64.90;;;;;;5033479;28;20194;-79
2022/06/05 09:37:52;;;;;;;3.22;2.30;;;26.60;61.50;;;;;;5033699;28;20204;-73
2022/06/05 09:40:32;;;;;;;4.47;2.60;;;26.10;63.20;;;;;;5036210;28;20298;-79
2022/06/05 09:43:38;;;;;;;2.80;2.25;;;26.20;64.30;;;;;;5033461;28;20195;-82
2022/06/05 09:46:36;;;;;;;4.03;2.47;;;26.70;60.40;;;;;;5035134;28;20195;-81
2022/06/05 09:49:24;;;;;;;3.05;2.10;;;27.00;59.40;;;;;;5033779;28;20203;-81
2022/06/05 09:51:50;;;;;;;2.70;2.00;;;27.30;61.20;;;;;;5033369;28;20669;-82
2022/06/05 09:54:30;;;;;;;3.95;2.20;;;27.40;57.60;;;;;;5033414;28;20204;-82
2022/06/05 10:00:05;;;;;;;3.85;2.53;;;27.90;58.30;;;;;;5035124;28;20266;-83
2022/06/05 10:02:33;;;;;;;2.67;2.40;;;27.40;57.00;;;;;;5033278;28;20238;-78
2022/06/05 10:05:01;;;;;;;2.60;2.25;;;27.10;57.90;;;;;;5033879;28;20307;-80
2022/06/05 10:07:44;;;;;;;4.20;2.30;;;27.30;57.80;;;;;;5034694;28;20191;-81
2022/06/05 10:10:24;;;;;;;3.95;2.60;;;27.50;59.20;;;;;;5032963;28;20593;-78
2022/06/05 10:12:56;;;;;;;3.95;2.47;;;28.00;56.90;;;;;;5033151;28;20203;-81
2022/06/05 10:15:31;;;;;;;3.15;2.38;;;28.50;57.00;;;;;;5032816;28;20733;-81
2022/06/05 10:18:03;;;;;;;3.88;2.67;;;28.70;54.40;;;;;;5032425;28;20203;-82
2022/06/05 10:20:37;;;;;;;3.38;2.67;;;28.80;56.20;;;;;;5032676;28;20314;-82
2022/06/05 10:23:27;;;;;;;3.78;2.60;;;28.60;54.70;;;;;;5032555;28;20282;-82
2022/06/05 10:26:07;;;;;;;2.50;2.00;;;28.70;51.80;;;;;;5034041;28;20187;-82
2022/06/05 10:28:39;;;;;;;2.83;2.33;;;29.00;51.00;;;;;;5033374;28;20784;-82
2022/06/05 10:31:22;;;;;;;4.28;2.42;;;28.40;53.20;;;;;;5032697;28;20234;-81
2022/06/05 10:34:21;;;;;;;2.72;2.33;;;29.00;55.40;;;;;;5032994;28;20294;-82
2022/06/05 10:37:16;;;;;;;2.42;2.03;;;29.80;55.20;;;;;;5033072;28;20629;-82
2022/06/05 10:40:37;;;;;;;4.32;2.20;;;30.50;52.40;;;;;;5032684;28;20203;-82
2022/06/05 10:43:16;;;;;;;3.80;1.90;;;30.80;49.30;;;;;;4972413;28;20320;-82
2022/06/05 10:45:52;;;;;;;2.75;2.10;;;30.80;50.40;;;;;;4973875;28;20193;-83
2022/06/05 10:48:40;;;;;;;2.03;1.80;;;30.70;47.60;;;;;;4973451;28;20300;-80
2022/06/05 10:51:32;;;;;;;3.42;1.80;;;30.70;45.40;;;;;;4972811;28;20591;-78
2022/06/05 10:54:25;;;;;;;2.53;1.70;;;30.80;45.30;;;;;;4956751;28;20305;-67
2022/06/05 10:57:05;;;;;;;2.20;1.60;;;31.30;44.20;;;;;;4918274;29;20664;-68
2022/06/05 10:59:59;;;;;;;1.73;1.60;;;31.80;44.70;;;;;;4917984;29;20207;-71
2022/06/05 11:02:33;;;;;;;2.65;1.80;;;31.90;42.20;;;;;;4934095;29;20234;-68
2022/06/05 11:05:36;;;;;;;4.75;1.70;;;32.10;42.80;;;;;;4917874;29;20199;-69
2022/06/05 11:08:12;;;;;;;4.03;1.80;;;32.00;42.40;;;;;;4933979;29;20246;-68
2022/06/05 11:14:14;;;;;;;2.78;1.70;;;32.30;42.50;;;;;;4933799;29;20219;-69
2022/06/05 11:17:17;;;;;;;2.30;1.80;;;32.10;42.90;;;;;;4942207;29;20623;-72
2022/06/05 11:20:06;;;;;;;2.17;1.75;;;32.50;42.90;;;;;;4937111;29;20288;-71
2022/06/05 11:22:36;;;;;;;2.03;1.83;;;32.90;43.60;;;;;;4936985;29;20764;-68
2022/06/05 11:25:49;;;;;;;8.68;2.58;;;33.10;43.90;;;;;;4920195;29;20261;-71
2022/06/05 11:28:36;;;;;;;2.67;1.92;;;33.10;41.60;;;;;;4914408;29;20255;-68
2022/06/05 11:31:06;;;;;;;2.28;1.80;;;33.20;40.50;;;;;;4914725;29;20603;-68
2022/06/05 11:33:41;;;;;;;3.67;2.08;;;33.10;42.60;;;;;;4930815;28;20213;-68
2022/06/05 11:36:17;;;;;;;2.63;1.90;;;33.20;42.80;;;;;;4971097;28;20251;-68
2022/06/05 11:39:37;;;;;;;3.83;1.90;;;33.30;42.20;;;;;;4971860;28;20288;-68
2022/06/05 11:42:35;;;;;;;5.45;2.30;;;33.80;41.30;;;;;;4914136;29;20220;-66
2022/06/05 11:45:25;;;;;;;3.53;1.90;;;33.80;39.80;;;;;;4898783;29;20352;-80
2022/06/05 11:48:10;;;;;;;2.13;1.73;;;34.00;41.50;;;;;;4898570;29;20295;-76
2022/06/05 11:50:57;;;;;;;2.45;2.10;;;34.10;40.30;;;;;;4914714;29;20295;-67
2022/06/05 11:53:39;;;;;;;2.58;2.30;;;33.90;39.60;;;;;;4915129;29;20229;-66
2022/06/05 11:56:36;;;;;;;2.58;2.05;;;33.00;38.60;;;;;;4914317;29;20207;-82
2022/06/05 11:59:39;;;;;;;3.67;2.30;;;32.80;40.50;;;;;;4898619;29;20199;-78
2022/06/05 12:02:09;;;;;;;2.45;1.88;;;33.50;40.80;;;;;;4914333;29;20294;-78
2022/06/05 12:04:47;;;;;;;2.33;1.80;;;33.80;38.90;;;;;;4940217;28;20629;-82
2022/06/05 12:07:16;;;;;;;2.15;1.80;;;33.10;38.50;;;;;;4974728;28;20292;-75
2022/06/05 12:09:53;;;;;;;3.08;1.95;;;33.30;37.90;;;;;;4974961;28;20201;-80
2022/06/05 12:12:25;;;;;;;3.00;2.00;;;33.50;38.70;;;;;;4994464;28;20306;-82
2022/06/05 12:14:59;;;;;;;2.65;2.25;;;33.20;39.30;;;;;;5034377;28;20721;-82
2022/06/05 12:18:03;;;;;;;3.42;2.40;;;32.40;39.40;;;;;;5033333;28;20227;-84
2022/06/05 12:20:49;;;;;;;4.80;2.25;;;32.50;40.60;;;;;;5031837;28;20326;-82
2022/06/05 12:23:26;;;;;;;2.83;2.00;;;33.30;40.50;;;;;;5031875;28;20727;-82
2022/06/05 12:26:01;;;;;;;2.72;1.90;;;33.30;39.30;;;;;;5014983;28;20286;-84
2022/06/05 12:28:28;;;;;;;2.63;2.10;;;33.40;40.60;;;;;;5031036;28;20229;-77
2022/06/05 12:31:03;;;;;;;3.28;1.92;;;34.10;40.00;;;;;;5032648;28;20195;-70
2022/06/05 12:33:49;;;;;;;2.05;1.77;;;34.60;40.60;;;;;;5030888;28;20586;-66
2022/06/05 12:36:40;;;;;;;3.70;1.98;;;35.30;40.00;;;;;;5032249;28;20668;-66
2022/06/05 12:39:22;;;;;;;2.28;1.90;;;35.70;39.30;;;;;;5031298;28;20210;-67
2022/06/05 12:42:25;;;;;;;3.38;1.80;;;35.60;37.70;;;;;;5030945;28;20322;-67
2022/06/05 12:44:53;;;;;;;3.47;1.80;;;35.40;37.70;;;;;;5020731;28;20656;-67
2022/06/05 12:47:47;;;;;;;2.72;1.90;;;35.40;36.90;;;;;;5034302;28;20200;-67
2022/06/05 12:50:43;;;;;;;6.53;2.08;;;35.50;36.10;;;;;;5034954;28;20204;-67
2022/06/05 12:53:19;;;;;;;2.25;1.80;;;35.40;35.80;;;;;;5034796;28;20206;-67
2022/06/05 12:55:54;;;;;;;2.00;1.80;;;35.60;36.60;;;;;;5034386;28;20286;-66
2022/06/05 12:58:35;;;;;;;2.60;2.00;;;35.70;35.80;;;;;;5017605;28;20203;-68
2022/06/05 13:01:07;;;;;;;2.50;1.90;;;35.80;35.10;;;;;;5035789;28;20249;-78
2022/06/05 13:03:56;;;;;;;2.72;1.70;;;35.60;36.20;;;;;;5033948;28;20229;-83
2022/06/05 13:06:44;;;;;;;3.20;2.00;;;35.40;35.50;;;;;;5034261;28;20534;-76
2022/06/05 13:09:39;;;;;;;2.72;2.00;;;34.70;35.60;;;;;;5034261;28;20242;-80
2022/06/05 13:12:18;;;;;;;3.58;2.20;;;34.80;36.10;;;;;;5034102;28;20294;-84
2022/06/05 13:14:59;;;;;;;3.83;2.00;;;35.20;35.50;;;;;;5034145;28;20616;-73
2022/06/05 13:17:51;;;;;;;3.15;1.92;;;34.10;36.00;;;;;;5034096;28;20286;-67
2022/06/05 13:20:40;;;;;;;4.25;1.80;;;34.40;37.60;;;;;;5033673;28;20563;-84
2022/06/05 13:23:31;;;;;;;4.28;2.00;;;35.10;36.20;;;;;;5034633;28;20318;-82
2022/06/05 13:26:36;;;;;;;3.28;2.00;;;35.20;36.80;;;;;;5034096;28;20195;-84
2022/06/05 13:29:14;;;;;;;2.15;1.70;;;35.20;36.90;;;;;;5033587;28;20219;-83
2022/06/05 13:32:13;;;;;;;2.72;1.90;;;35.40;38.30;;;;;;5035090;28;20265;-83
2022/06/05 13:35:12;;;;;;;2.22;1.83;;;35.90;37.30;;;;;;5034710;28;20218;-83
2022/06/05 13:37:49;;;;;;;2.30;2.10;;;36.60;35.00;;;;;;5033997;28;20295;-84
2022/06/05 13:40:47;;;;;;;2.55;2.00;;;36.60;35.60;;;;;;5034232;28;20199;-83
2022/06/05 13:43:36;;;;;;;2.85;1.90;;;36.20;34.20;;;;;;4957921;28;20233;-74
2022/06/05 13:46:32;;;;;;;2.00;1.80;;;36.50;35.00;;;;;;4957325;28;20251;-72
2022/06/05 13:49:28;;;;;;;2.25;1.95;;;36.50;36.40;;;;;;4957396;28;20304;-69